Abeille Honfleur 19 — FV6095 — position and weather

sailwx.info

Track history (hours):
 
Tides and Currents Weather Stations Pressure Air Temp Water Temp Dewpoint Dewpoint Depression Visibility Wind Speed Wind Dir Waves Ship Positions

Abeille Honfleur 19

Last reported at 2016-Apr-29 04:26 UTC. Time now 2016-Apr-29 06:02 UTC.
Position N 47°16' W 002°12'.

Length 30 m.

Type: Tug. MMSI: 227005280.

Date/timePositionNaut miles runAvg speedWind from/ knotsBaromVisibWave heightAir tempDewpointWater temp
2016-Apr-29 04:26N 47°16' W 002°12'0 0.0
2016-Apr-29 03:23N 47°16' W 002°12'0 0.0
2016-Apr-29 02:29N 47°16' W 002°12'0 0.0
2016-Apr-29 01:32N 47°16' W 002°12'0 0.0
2016-Apr-29 00:29N 47°16' W 002°12'0 0.0
2016-Apr-28 23:26N 47°16' W 002°12'0 0.0
2016-Apr-28 22:32N 47°16' W 002°12'0 0.0
2016-Apr-28 21:29N 47°16' W 002°12'0 0.0
2016-Apr-28 20:32N 47°16' W 002°12'0 0.0
2016-Apr-28 19:26N 47°16' W 002°12'0 0.0
2016-Apr-28 18:29N 47°16' W 002°12'0 0.0
2016-Apr-28 17:17N 47°16' W 002°12'0 0.0
2016-Apr-28 10:29N 47°16' W 002°12'0 0.0
2016-Apr-28 09:32N 47°16' W 002°12'0 0.0
2016-Apr-28 08:29N 47°16' W 002°12'0 0.0
2016-Apr-28 07:29N 47°16' W 002°12'0 0.0
2016-Apr-28 06:29N 47°16' W 002°12'0 0.0
2016-Apr-28 05:32N 47°16' W 002°12'0 0.0
2016-Apr-28 04:08N 47°16' W 002°12'0 0.0
2016-Apr-28 03:23N 47°16' W 002°12'0 0.0
2016-Apr-28 02:11N 47°16' W 002°12'0 0.0
2016-Apr-28 01:23N 47°16' W 002°12'0 0.0
2016-Apr-28 00:11N 47°16' W 002°12'0 0.0
2016-Apr-27 23:23N 47°16' W 002°12'0 0.0
2016-Apr-27 22:29N 47°16' W 002°12'0 0.0
2016-Apr-27 21:29N 47°16' W 002°12'0 0.0
2016-Apr-27 20:17N 47°16' W 002°12'6 7.8
2016-Apr-27 19:33N 47°18' W 002°04'0 0.2
2016-Apr-27 18:33N 47°18' W 002°04'4 4.5
2016-Apr-27 17:33N 47°17' W 002°11'1 0.2
2016-Apr-27 10:28N 47°16' W 002°12'0 0.3
2016-Apr-27 09:27N 47°16' W 002°12'0 0.0
2016-Apr-27 08:33N 47°16' W 002°12'0 0.0
2016-Apr-27 07:33N 47°16' W 002°12'0 0.0
2016-Apr-27 06:34N 47°16' W 002°12'0 0.0
2016-Apr-27 05:30N 47°16' W 002°12'0 0.0
2016-Apr-27 04:33N 47°16' W 002°12'0 0.0
2016-Apr-27 03:27N 47°16' W 002°12'0 0.0
2016-Apr-27 02:33N 47°16' W 002°12'0 0.0
2016-Apr-27 01:30N 47°16' W 002°12'0 0.0
2016-Apr-27 00:33N 47°16' W 002°12'0 0.0
2016-Apr-26 23:30N 47°16' W 002°12'0 0.0
2016-Apr-26 22:30N 47°16' W 002°12'0 0.0
2016-Apr-26 21:33N 47°16' W 002°12'0 0.0
2016-Apr-26 20:33N 47°16' W 002°12'0 0.0
2016-Apr-26 19:27N 47°16' W 002°12'0 0.0
2016-Apr-26 18:33N 47°16' W 002°12'0 0.0
2016-Apr-26 17:33N 47°16' W 002°12'0 0.0
2016-Apr-26 16:33N 47°16' W 002°12'0 0.0
2016-Apr-26 15:33N 47°16' W 002°12'0 0.0
2016-Apr-26 14:33N 47°16' W 002°12'0 0.3
2016-Apr-26 13:32N 47°16' W 002°12'0 0.1
2016-Apr-26 11:31N 47°16' W 002°12'0 0.0
2016-Apr-26 10:30N 47°16' W 002°12'0 0.0
2016-Apr-26 09:34N 47°16' W 002°12'0 0.0
2016-Apr-26 08:30N 47°16' W 002°12'  
2016-Apr-22 15:11N 47°16' W 002°12'0 0.0
2016-Apr-22 14:28N 47°16' W 002°12'0 0.0
2016-Apr-22 13:32N 47°16' W 002°12'0 0.0
2016-Apr-22 12:29N 47°16' W 002°12'0 0.0
2016-Apr-22 11:29N 47°16' W 002°12'0 0.0
2016-Apr-22 10:32N 47°16' W 002°12'0 0.0
2016-Apr-22 09:31N 47°16' W 002°12'1 0.6
2016-Apr-22 08:31N 47°17' W 002°12'1 0.5
2016-Apr-22 07:22N 47°16' W 002°12'0 0.0
2016-Apr-22 06:04N 47°16' W 002°12'0 0.0
2016-Apr-22 05:28N 47°16' W 002°12'0 0.0
2016-Apr-22 03:28N 47°16' W 002°12'0 0.0
2016-Apr-22 02:25N 47°16' W 002°12'0 0.0
2016-Apr-22 01:25N 47°16' W 002°12'0 0.0
2016-Apr-22 00:31N 47°16' W 002°12'0 0.0
2016-Apr-21 23:31N 47°16' W 002°12'0 0.0
2016-Apr-21 22:31N 47°16' W 002°12'0 0.0
2016-Apr-21 21:31N 47°16' W 002°12'0 0.0
2016-Apr-21 20:31N 47°16' W 002°12'0 0.0
2016-Apr-21 19:25N 47°16' W 002°12'0 0.0
2016-Apr-21 18:28N 47°16' W 002°12'0 0.0
2016-Apr-21 17:31N 47°16' W 002°12'0 0.0
2016-Apr-21 14:31N 47°16' W 002°12'0 0.0
2016-Apr-21 13:31N 47°16' W 002°12'0 0.0
2016-Apr-21 12:31N 47°16' W 002°12'  
Track history (hours):
 
Tides and Currents Weather Stations Pressure Air Temp Water Temp Dewpoint Dewpoint Depression Visibility Wind Speed Wind Dir Waves Ship Positions

Abeille Honfleur 19

Last reported at 2016-Apr-29 04:26 UTC. Time now 2016-Apr-29 06:02 UTC.
Position N 47°16' W 002°12'.

Length 30 m.

Type: Tug. MMSI: 227005280.

Date/timePositionNaut miles runAvg speedWind from/ knotsBaromVisibWave heightAir tempDewpointWater temp
2016-Apr-29 04:26N 47°16' W 002°12'0 0.0
2016-Apr-29 03:23N 47°16' W 002°12'0 0.0
2016-Apr-29 02:29N 47°16' W 002°12'0 0.0
2016-Apr-29 01:32N 47°16' W 002°12'0 0.0
2016-Apr-29 00:29N 47°16' W 002°12'0 0.0
2016-Apr-28 23:26N 47°16' W 002°12'0 0.0
2016-Apr-28 22:32N 47°16' W 002°12'0 0.0
2016-Apr-28 21:29N 47°16' W 002°12'0 0.0
2016-Apr-28 20:32N 47°16' W 002°12'0 0.0
2016-Apr-28 19:26N 47°16' W 002°12'0 0.0
2016-Apr-28 18:29N 47°16' W 002°12'0 0.0
2016-Apr-28 17:17N 47°16' W 002°12'0 0.0
2016-Apr-28 10:29N 47°16' W 002°12'0 0.0
2016-Apr-28 09:32N 47°16' W 002°12'0 0.0
2016-Apr-28 08:29N 47°16' W 002°12'0 0.0
2016-Apr-28 07:29N 47°16' W 002°12'0 0.0
2016-Apr-28 06:29N 47°16' W 002°12'0 0.0
2016-Apr-28 05:32N 47°16' W 002°12'0 0.0
2016-Apr-28 04:08N 47°16' W 002°12'0 0.0
2016-Apr-28 03:23N 47°16' W 002°12'0 0.0
2016-Apr-28 02:11N 47°16' W 002°12'0 0.0
2016-Apr-28 01:23N 47°16' W 002°12'0 0.0
2016-Apr-28 00:11N 47°16' W 002°12'0 0.0
2016-Apr-27 23:23N 47°16' W 002°12'0 0.0
2016-Apr-27 22:29N 47°16' W 002°12'0 0.0
2016-Apr-27 21:29N 47°16' W 002°12'0 0.0
2016-Apr-27 20:17N 47°16' W 002°12'6 7.8
2016-Apr-27 19:33N 47°18' W 002°04'0 0.2
2016-Apr-27 18:33N 47°18' W 002°04'4 4.5
2016-Apr-27 17:33N 47°17' W 002°11'1 0.2
2016-Apr-27 10:28N 47°16' W 002°12'0 0.3
2016-Apr-27 09:27N 47°16' W 002°12'0 0.0
2016-Apr-27 08:33N 47°16' W 002°12'0 0.0
2016-Apr-27 07:33N 47°16' W 002°12'0 0.0
2016-Apr-27 06:34N 47°16' W 002°12'0 0.0
2016-Apr-27 05:30N 47°16' W 002°12'0 0.0
2016-Apr-27 04:33N 47°16' W 002°12'0 0.0
2016-Apr-27 03:27N 47°16' W 002°12'0 0.0
2016-Apr-27 02:33N 47°16' W 002°12'0 0.0
2016-Apr-27 01:30N 47°16' W 002°12'0 0.0
2016-Apr-27 00:33N 47°16' W 002°12'0 0.0
2016-Apr-26 23:30N 47°16' W 002°12'0 0.0
2016-Apr-26 22:30N 47°16' W 002°12'0 0.0
2016-Apr-26 21:33N 47°16' W 002°12'0 0.0
2016-Apr-26 20:33N 47°16' W 002°12'0 0.0
2016-Apr-26 19:27N 47°16' W 002°12'0 0.0
2016-Apr-26 18:33N 47°16' W 002°12'0 0.0
2016-Apr-26 17:33N 47°16' W 002°12'0 0.0
2016-Apr-26 16:33N 47°16' W 002°12'0 0.0
2016-Apr-26 15:33N 47°16' W 002°12'0 0.0
2016-Apr-26 14:33N 47°16' W 002°12'0 0.3
2016-Apr-26 13:32N 47°16' W 002°12'0 0.1
2016-Apr-26 11:31N 47°16' W 002°12'0 0.0
2016-Apr-26 10:30N 47°16' W 002°12'0 0.0
2016-Apr-26 09:34N 47°16' W 002°12'0 0.0
2016-Apr-26 08:30N 47°16' W 002°12'  
2016-Apr-22 15:11N 47°16' W 002°12'0 0.0
2016-Apr-22 14:28N 47°16' W 002°12'0 0.0
2016-Apr-22 13:32N 47°16' W 002°12'0 0.0
2016-Apr-22 12:29N 47°16' W 002°12'0 0.0
2016-Apr-22 11:29N 47°16' W 002°12'0 0.0
2016-Apr-22 10:32N 47°16' W 002°12'0 0.0
2016-Apr-22 09:31N 47°16' W 002°12'1 0.6
2016-Apr-22 08:31N 47°17' W 002°12'1 0.5
2016-Apr-22 07:22N 47°16' W 002°12'0 0.0
2016-Apr-22 06:04N 47°16' W 002°12'0 0.0
2016-Apr-22 05:28N 47°16' W 002°12'0 0.0
2016-Apr-22 03:28N 47°16' W 002°12'0 0.0
2016-Apr-22 02:25N 47°16' W 002°12'0 0.0
2016-Apr-22 01:25N 47°16' W 002°12'0 0.0
2016-Apr-22 00:31N 47°16' W 002°12'0 0.0
2016-Apr-21 23:31N 47°16' W 002°12'0 0.0
2016-Apr-21 22:31N 47°16' W 002°12'0 0.0
2016-Apr-21 21:31N 47°16' W 002°12'0 0.0
2016-Apr-21 20:31N 47°16' W 002°12'0 0.0
2016-Apr-21 19:25N 47°16' W 002°12'0 0.0
2016-Apr-21 18:28N 47°16' W 002°12'0 0.0
2016-Apr-21 17:31N 47°16' W 002°12'0 0.0
2016-Apr-21 14:31N 47°16' W 002°12'0 0.0
2016-Apr-21 13:31N 47°16' W 002°12'0 0.0
2016-Apr-21 12:31N 47°16' W 002°12'  

Dump ship's entire track history